logo
Search for airport 
image banner adimage banner adimage banner ad
image banner ad

OPWN - Wana Airport

Located in Waana, Pakistan

ICAO - OPWN, IATA - WAF

Data provided by Airmate  

General information

Coordinates: N32°18'17" E69°34'13"
Elevation is 4550 feet MSL.
Magnetic variation is 3° East
View others Airports in Federally Administered Tribal Areas

Operational data

Special qualification required
Current time UTC:
Current local time:
Weather at : - ( 0 km )
METAR: TXKF 152155Z 21009KT 9999 FEW025 SCT300 28/23 Q1020
View NOTAMs / SUP AIP / TFR affecting this airport [VIEW]
Communications frequencies: [VIEW]

Runways:

Airport contact information

Address: Waana Pakistan

Satellite view of OPWN